Time;durP1;ratioP1;P1;durP2;ratioP2;P2;SDS_P1;SDS_P2;PMS_P1;PMS_P2;Temp;Humidity;BMP_temperature;BMP_pressure;BME280_temperature;BME280_humidity;BME280_pressure;Samples;Min_cycle;Max_cycle;Signal;HPM_P1;HPM_P2
2022/08/01 00:00:09;;;;;;;9.10;6.22;;;;;;;19.99;77.57;95511.69;5126405;27;20058;-76
2022/08/01 00:02:54;;;;;;;8.75;6.55;;;;;;;19.92;77.74;95506.09;5122934;27;20050;-76
2022/08/01 00:05:20;;;;;;;11.20;6.60;;;;;;;19.95;78.10;95510.78;5127385;27;20716;-76
2022/08/01 00:07:45;;;;;;;8.50;6.40;;;;;;;19.94;78.49;95510.00;5127728;27;20047;-76
2022/08/01 00:10:13;;;;;;;11.35;6.90;;;;;;;19.98;77.94;95508.22;5129067;27;20799;-76
2022/08/01 00:12:40;;;;;;;10.45;6.82;;;;;;;20.01;77.82;95509.44;5130976;27;20039;-76
2022/08/01 00:15:07;;;;;;;11.88;6.82;;;;;;;19.95;77.78;95505.44;5132068;27;20122;-76
2022/08/01 00:17:33;;;;;;;10.50;6.47;;;;;;;19.98;77.42;95507.44;5132495;27;20043;-76
2022/08/01 00:19:58;;;;;;;9.30;6.22;;;;;;;19.92;77.75;95511.44;5119457;27;20039;-76
2022/08/01 00:22:24;;;;;;;9.63;6.50;;;;;;;19.90;77.94;95515.19;5128679;27;20043;-76
2022/08/01 00:24:49;;;;;;;11.05;6.40;;;;;;;19.98;77.82;95516.22;5127741;27;20040;-76
2022/08/01 00:27:15;;;;;;;9.07;6.18;;;;;;;19.90;77.49;95520.53;5121641;27;20452;-76
2022/08/01 00:29:40;;;;;;;12.25;6.60;;;;;;;19.76;77.92;95520.03;5110726;28;20675;-75
2022/08/01 00:32:06;;;;;;;11.50;6.25;;;;;;;19.81;78.22;95517.19;5116905;27;20054;-75
2022/08/01 00:34:32;;;;;;;7.38;5.82;;;;;;;19.73;80.02;95518.00;5099363;27;20043;-75
2022/08/01 00:36:58;;;;;;;9.32;6.22;;;;;;;19.76;79.97;95520.03;5128989;27;20056;-76
2022/08/01 00:39:23;;;;;;;10.38;6.47;;;;;;;19.74;78.87;95519.56;5126801;27;20031;-75
2022/08/01 00:41:49;;;;;;;14.05;6.70;;;;;;;19.74;78.29;95527.59;5105886;27;20104;-76
2022/08/01 00:44:14;;;;;;;9.93;7.07;;;;;;;19.68;79.46;95518.19;5110015;27;20096;-75
2022/08/01 00:46:41;;;;;;;10.85;6.60;;;;;;;19.76;77.13;95525.34;5129018;27;20536;-76
2022/08/01 00:49:07;;;;;;;11.38;6.80;;;;;;;19.77;76.46;95526.94;5124682;27;20131;-76
2022/08/01 00:51:33;;;;;;;10.68;6.18;;;;;;;19.72;76.43;95517.22;5118563;27;20039;-76
2022/08/01 00:54:00;;;;;;;22.23;6.40;;;;;;;19.73;76.40;95520.69;5126322;27;20031;-77
2022/08/01 00:56:27;;;;;;;11.93;6.43;;;;;;;19.79;75.37;95524.72;5131427;27;20035;-77
2022/08/01 00:58:54;;;;;;;10.98;6.32;;;;;;;19.82;75.34;95520.63;5110878;27;20031;-76
2022/08/01 01:01:21;;;;;;;13.13;7.10;;;;;;;19.86;74.50;95524.22;5117825;27;20048;-76
2022/08/01 01:03:51;;;;;;;10.27;6.50;;;;;;;19.79;74.92;95527.41;5130798;27;20104;-76
2022/08/01 01:06:27;;;;;;;10.60;6.35;;;;;;;19.72;74.47;95524.44;5126407;27;20594;-76
2022/08/01 01:09:09;;;;;;;11.15;6.55;;;;;;;19.72;75.20;95525.25;5127407;27;20485;-76
2022/08/01 01:12:05;;;;;;;11.85;6.38;;;;;;;19.72;75.20;95524.44;5111735;27;20035;-76
2022/08/01 01:14:46;;;;;;;9.18;6.30;;;;;;;19.55;76.18;95536.84;5129578;27;20039;-76
2022/08/01 01:17:16;;;;;;;9.63;6.43;;;;;;;19.64;74.65;95527.97;5113800;27;20124;-77
2022/08/01 01:19:47;;;;;;;10.50;6.40;;;;;;;19.63;75.14;95537.09;5112828;27;20453;-77
2022/08/01 01:22:24;;;;;;;13.25;6.22;;;;;;;19.50;76.24;95529.03;5100854;27;20092;-76
2022/08/01 01:25:13;;;;;;;10.63;6.50;;;;;;;19.52;76.08;95531.34;5117593;27;20039;-76
2022/08/01 01:27:51;;;;;;;10.60;6.28;;;;;;;19.46;76.01;95536.13;5106199;27;20079;-76
2022/08/01 01:30:17;;;;;;;10.98;5.72;;;;;;;19.46;76.50;95536.13;5122901;27;20774;-76
2022/08/01 01:32:48;;;;;;;11.57;6.18;;;;;;;19.48;75.64;95541.91;5123031;27;20036;-76
2022/08/01 01:35:35;;;;;;;8.85;5.90;;;;;;;19.41;76.04;95541.66;5092474;28;20031;-76
2022/08/01 01:38:14;;;;;;;12.57;6.13;;;;;;;19.36;76.06;95533.84;5104550;28;20042;-76
2022/08/01 01:40:41;;;;;;;8.88;5.65;;;;;;;19.34;75.65;95536.06;5112358;27;20043;-77
2022/08/01 01:43:10;;;;;;;9.57;6.03;;;;;;;19.33;77.06;95539.81;5119746;27;20035;-77
2022/08/01 01:45:36;;;;;;;14.77;7.43;;;;;;;19.28;78.07;95542.66;5118752;27;20035;-77
2022/08/01 01:48:03;;;;;;;9.48;6.32;;;;;;;19.33;76.75;95545.16;5103950;27;20097;-76
2022/08/01 01:50:30;;;;;;;12.18;6.10;;;;;;;19.30;76.28;95540.47;5117749;27;20039;-76
2022/08/01 01:52:57;;;;;;;7.63;5.90;;;;;;;19.21;76.09;95538.63;5112131;27;20046;-77
2022/08/01 01:55:25;;;;;;;8.13;5.82;;;;;;;19.16;76.88;95536.16;5102923;28;20044;-76
2022/08/01 01:57:52;;;;;;;10.23;6.25;;;;;;;19.29;76.37;95538.91;5117975;27;20470;-76
2022/08/01 02:00:18;;;;;;;8.40;5.90;;;;;;;19.33;76.41;95540.59;5129535;27;20043;-76
2022/08/01 02:02:45;;;;;;;11.73;6.50;;;;;;;19.30;76.61;95540.47;5122082;27;20076;-75
2022/08/01 02:05:13;;;;;;;9.65;6.07;;;;;;;19.28;75.28;95532.00;5119543;27;20589;-76
2022/08/01 02:07:40;;;;;;;8.52;6.05;;;;;;;19.26;76.37;95542.22;5126624;27;20527;-76
2022/08/01 02:10:08;;;;;;;11.00;6.07;;;;;;;19.35;76.50;95540.28;5122045;27;20043;-76
2022/08/01 02:12:37;;;;;;;8.02;5.70;;;;;;;19.44;74.83;95543.69;5122675;27;20389;-76
2022/08/01 02:15:04;;;;;;;7.45;5.50;;;;;;;19.34;75.35;95541.41;5110835;27;20143;-76
2022/08/01 02:17:31;;;;;;;13.77;5.90;;;;;;;19.36;75.71;95550.63;5129917;27;20130;-76
2022/08/01 02:19:57;;;;;;;10.38;6.20;;;;;;;19.35;75.31;95548.28;5125213;27;20035;-76
2022/08/01 02:22:44;;;;;;;11.45;6.07;;;;;;;19.47;73.73;95545.69;5112141;28;20101;-76
2022/08/01 02:25:18;;;;;;;12.10;6.00;;;;;;;19.38;74.67;95547.66;5128641;27;20046;-76
2022/08/01 02:28:09;;;;;;;11.07;5.78;;;;;;;19.37;74.82;95552.19;5112966;27;20076;-75
2022/08/01 02:30:38;;;;;;;9.13;5.95;;;;;;;19.38;74.06;95553.75;5101492;27;20127;-76
2022/08/01 02:33:14;;;;;;;12.27;6.38;;;;;;;19.38;73.70;95553.00;5125773;27;20047;-75
2022/08/01 02:35:43;;;;;;;12.52;5.75;;;;;;;19.32;74.87;95559.59;5124948;27;20092;-76
2022/08/01 02:38:12;;;;;;;12.38;6.00;;;;;;;19.25;74.55;95559.34;5129105;27;20039;-75
2022/08/01 02:40:41;;;;;;;8.40;5.75;;;;;;;19.23;74.43;95557.00;5121457;27;20086;-75
2022/08/01 02:43:09;;;;;;;8.57;5.93;;;;;;;19.06;75.88;95555.19;5123439;27;20062;-76
2022/08/01 02:45:37;;;;;;;9.55;6.10;;;;;;;19.09;76.12;95557.22;5129139;27;20039;-76
2022/08/01 02:48:09;;;;;;;13.35;6.43;;;;;;;19.03;75.75;95542.50;5129652;27;20111;-75
2022/08/01 02:50:36;;;;;;;10.73;5.57;;;;;;;18.91;77.68;95551.22;5127148;28;20048;-77
2022/08/01 02:53:03;;;;;;;10.77;6.00;;;;;;;18.89;76.84;95563.28;5128658;27;20065;-76
2022/08/01 02:55:32;;;;;;;9.55;5.78;;;;;;;18.77;79.50;95556.72;5129233;28;20118;-76
2022/08/01 02:58:00;;;;;;;10.10;6.15;;;;;;;18.85;77.08;95558.59;5129348;28;20492;-76
2022/08/01 03:00:27;;;;;;;8.50;5.70;;;;;;;18.78;76.89;95558.31;5121356;28;20054;-76
2022/08/01 03:02:56;;;;;;;7.63;5.53;;;;;;;18.80;76.53;95561.41;5118653;28;20054;-76
2022/08/01 03:05:24;;;;;;;8.70;5.68;;;;;;;18.80;76.95;95560.63;5110189;28;20039;-76
2022/08/01 03:07:52;;;;;;;11.50;5.65;;;;;;;18.84;76.44;95565.00;5129385;28;20050;-76
2022/08/01 03:10:18;;;;;;;10.20;6.05;;;;;;;18.78;76.47;95562.84;5110353;28;20050;-76
2022/08/01 03:12:46;;;;;;;15.02;6.18;;;;;;;18.76;76.21;95565.84;5125149;28;20062;-76
2022/08/01 03:15:14;;;;;;;11.73;5.80;;;;;;;18.72;76.67;95567.59;5127424;28;20073;-76
2022/08/01 03:17:42;;;;;;;13.13;5.82;;;;;;;18.67;76.79;95571.19;5128105;28;20042;-76
2022/08/01 03:20:12;;;;;;;7.90;5.68;;;;;;;18.61;76.97;95569.81;5124896;28;20039;-76
2022/08/01 03:22:39;;;;;;;8.88;5.93;;;;;;;18.63;77.44;95572.16;5110974;28;20053;-76
2022/08/01 03:25:06;;;;;;;11.65;5.65;;;;;;;18.61;77.93;95569.03;5118384;28;20043;-76
2022/08/01 03:27:33;;;;;;;9.50;6.00;;;;;;;18.61;77.30;95569.03;5102116;28;20043;-76
2022/08/01 03:30:02;;;;;;;9.27;6.13;;;;;;;18.56;79.21;95571.88;5108064;28;20035;-76
2022/08/01 03:32:29;;;;;;;11.63;5.95;;;;;;;18.53;77.54;95568.75;5129063;28;20039;-76
2022/08/01 03:34:55;;;;;;;11.63;5.95;;;;;;;18.51;77.77;95570.94;5128936;28;20050;-75
2022/08/01 03:37:38;;;;;;;11.13;5.32;;;;;;;18.61;76.68;95579.69;5123114;28;20047;-75
2022/08/01 03:40:17;;;;;;;12.13;5.95;;;;;;;18.60;76.59;95567.47;5119896;28;20046;-76
2022/08/01 03:42:49;;;;;;;12.20;6.15;;;;;;;18.52;77.11;95567.16;5128695;28;20046;-77
2022/08/01 03:45:21;;;;;;;13.32;5.60;;;;;;;18.55;76.94;95575.63;5128037;28;20031;-76
2022/08/01 03:47:48;;;;;;;8.38;5.80;;;;;;;18.50;77.64;95580.03;5125642;28;20516;-75
2022/08/01 03:50:16;;;;;;;11.63;6.15;;;;;;;18.43;77.46;95579.75;5114031;28;20664;-75
2022/08/01 03:52:44;;;;;;;9.38;5.90;;;;;;;18.42;77.47;95583.50;5125092;28;20035;-75
2022/08/01 03:55:12;;;;;;;10.77;6.38;;;;;;;18.37;78.65;95589.00;5110174;28;20587;-75
2022/08/01 03:57:39;;;;;;;9.80;6.13;;;;;;;18.24;80.23;95592.63;5124378;28;20035;-76
2022/08/01 04:00:08;;;;;;;12.25;5.60;;;;;;;18.27;80.01;95594.66;5124642;28;20050;-77
2022/08/01 04:02:34;;;;;;;9.18;6.05;;;;;;;18.26;79.11;95598.41;5109216;28;20096;-76
2022/08/01 04:05:01;;;;;;;9.38;5.68;;;;;;;18.20;79.86;95597.78;5129333;27;20115;-76
2022/08/01 04:07:29;;;;;;;9.60;6.13;;;;;;;18.17;80.34;95603.75;5111667;27;20050;-76
2022/08/01 04:09:56;;;;;;;10.15;5.88;;;;;;;18.14;80.05;95599.84;5108196;27;20528;-76
2022/08/01 04:12:22;;;;;;;10.35;5.70;;;;;;;18.12;80.82;95602.03;5127787;27;20066;-76
2022/08/01 04:14:48;;;;;;;10.80;5.95;;;;;;;18.09;81.79;95602.69;5132016;27;20080;-76
2022/08/01 04:17:15;;;;;;;9.10;6.10;;;;;;;17.99;82.88;95601.13;5128795;27;20041;-76
2022/08/01 04:19:41;;;;;;;9.93;5.93;;;;;;;18.00;82.79;95604.56;5130862;27;20080;-76
2022/08/01 04:22:09;;;;;;;10.55;5.80;;;;;;;18.06;82.35;95608.63;5131507;27;20054;-76
2022/08/01 04:24:36;;;;;;;9.88;5.75;;;;;;;17.99;81.03;95613.66;5122818;27;20043;-76
2022/08/01 04:27:05;;;;;;;12.50;5.97;;;;;;;17.96;81.63;95614.28;5101290;27;20043;-77
2022/08/01 04:29:32;;;;;;;10.80;6.13;;;;;;;17.99;80.84;95624.31;5126513;27;20046;-76
2022/08/01 04:32:00;;;;;;;9.48;6.15;;;;;;;18.08;80.57;95622.41;5102409;27;20042;-76
2022/08/01 04:34:28;;;;;;;10.93;6.07;;;;;;;18.09;80.69;95618.66;5130118;27;20035;-76
2022/08/01 04:36:55;;;;;;;9.90;6.55;;;;;;;18.11;80.69;95616.44;5132407;27;20050;-76
2022/08/01 04:39:27;;;;;;;11.20;5.60;;;;;;;18.07;82.29;95625.38;5123001;27;20035;-76
2022/08/01 04:41:56;;;;;;;9.57;5.90;;;;;;;18.10;80.74;95620.22;5118471;27;20054;-76
2022/08/01 04:44:23;;;;;;;12.80;5.93;;;;;;;18.14;81.55;95631.03;5130602;27;20777;-76
2022/08/01 04:46:50;;;;;;;11.38;6.28;;;;;;;18.09;80.85;95634.63;5132310;27;20039;-76
2022/08/01 04:49:16;;;;;;;11.55;5.95;;;;;;;18.09;81.16;95626.66;5102111;27;20114;-76
2022/08/01 04:51:59;;;;;;;10.63;5.75;;;;;;;18.10;80.29;95633.56;5119237;27;20051;-76
2022/08/01 04:54:26;;;;;;;8.77;5.80;;;;;;;18.13;80.31;95635.56;5121179;27;20027;-76
2022/08/01 04:56:55;;;;;;;11.63;5.65;;;;;;;18.09;80.80;95639.97;5124843;27;20447;-76
2022/08/01 04:59:39;;;;;;;10.98;6.32;;;;;;;18.12;82.06;95631.34;5130688;27;20130;-77
2022/08/01 05:02:06;;;;;;;;;;;;;;;18.13;81.92;95632.91;5114008;27;20049;-77
2022/08/01 05:04:32;;;;;;;11.85;6.18;;;;;;;18.11;82.76;95643.09;5128164;27;19967;-77
2022/08/01 05:06:57;;;;;;;8.80;5.55;;;;;;;18.12;81.53;95634.00;5097068;28;20462;-76
2022/08/01 05:09:23;;;;;;;13.25;6.13;;;;;;;18.12;81.97;95639.34;5103842;27;20046;-76
2022/08/01 05:11:48;;;;;;;10.55;5.57;;;;;;;18.23;82.18;95639.00;5114649;27;20039;-76
2022/08/01 05:14:14;;;;;;;10.75;5.90;;;;;;;18.25;81.41;95647.47;5128413;27;20039;-76
2022/08/01 05:16:39;;;;;;;11.38;5.95;;;;;;;18.30;82.36;95644.63;5131309;27;20043;-76
2022/08/01 05:19:05;;;;;;;10.85;5.78;;;;;;;18.40;81.25;95638.22;5130972;27;20047;-76
2022/08/01 05:21:30;;;;;;;8.18;5.57;;;;;;;18.48;81.26;95650.75;5110540;27;20043;-76
2022/08/01 05:23:57;;;;;;;13.25;5.80;;;;;;;18.55;80.97;95635.06;5124247;27;20837;-76
2022/08/01 05:26:23;;;;;;;8.20;5.45;;;;;;;18.63;81.44;95642.25;5121313;27;20039;-76
2022/08/01 05:28:48;;;;;;;10.95;5.30;;;;;;;18.78;79.25;95651.59;5129592;27;20042;-77
2022/08/01 05:31:14;;;;;;;11.43;5.35;;;;;;;18.92;78.42;95653.31;5113563;27;20043;-77
2022/08/01 05:33:39;;;;;;;10.30;5.40;;;;;;;19.10;76.99;95648.69;5129421;27;20496;-76
2022/08/01 05:36:05;;;;;;;8.90;5.60;;;;;;;19.20;75.73;95654.44;5132123;27;20040;-76
2022/08/01 05:38:30;;;;;;;11.35;5.97;;;;;;;19.30;75.89;95657.88;5124305;27;20039;-76
2022/08/01 05:40:56;;;;;;;8.07;5.10;;;;;;;19.26;76.14;95662.28;5109403;28;20409;-76
2022/08/01 05:43:21;;;;;;;11.32;5.68;;;;;;;19.28;75.96;95654.72;5108754;27;20510;-76
2022/08/01 05:45:47;;;;;;;8.85;5.25;;;;;;;19.38;75.28;95657.06;5114021;27;20067;-76
2022/08/01 05:48:13;;;;;;;10.90;6.25;;;;;;;19.47;75.32;95660.44;5125970;27;20035;-76
2022/08/01 05:50:38;;;;;;;8.60;5.13;;;;;;;19.48;73.99;95654.00;5127531;27;20674;-76
2022/08/01 05:53:04;;;;;;;7.55;4.60;;;;;;;19.53;75.41;95661.81;5128820;27;20569;-76
2022/08/01 05:55:29;;;;;;;10.20;4.82;;;;;;;19.66;72.67;95656.56;5128171;27;20035;-76
2022/08/01 05:57:55;;;;;;;10.00;5.00;;;;;;;19.74;72.72;95667.19;5130261;27;20035;-76
2022/08/01 06:00:21;;;;;;;7.03;4.82;;;;;;;19.81;71.86;95664.03;5111702;27;20508;-76
2022/08/01 06:02:46;;;;;;;10.07;4.80;;;;;;;19.96;71.10;95667.25;5103277;28;20062;-76
2022/08/01 06:05:12;;;;;;;7.80;4.60;;;;;;;19.99;70.26;95669.25;5118827;27;20518;-76
2022/08/01 06:07:38;;;;;;;7.93;5.43;;;;;;;19.97;71.12;95664.25;5112765;27;20035;-76
2022/08/01 06:10:04;;;;;;;9.88;4.80;;;;;;;20.03;71.87;95678.97;5124379;27;20047;-76
2022/08/01 06:12:33;;;;;;;8.20;4.60;;;;;;;20.01;71.21;95681.19;5111510;27;20437;-76
2022/08/01 06:14:58;;;;;;;8.77;4.60;;;;;;;20.05;70.46;95670.63;5122889;27;20059;-76
2022/08/01 06:17:24;;;;;;;8.57;4.82;;;;;;;20.21;70.97;95679.63;5128029;27;20039;-76
2022/08/01 06:19:49;;;;;;;8.60;4.80;;;;;;;20.24;70.06;95678.16;5117812;27;20040;-77
2022/08/01 06:22:15;;;;;;;9.18;4.82;;;;;;;20.21;69.84;95679.63;5121452;27;20043;-77
2022/08/01 06:24:40;;;;;;;9.57;4.80;;;;;;;20.18;69.45;95688.25;5129744;27;20046;-76
2022/08/01 06:27:06;;;;;;;10.20;5.70;;;;;;;20.20;70.38;95678.03;5114899;27;20506;-75
2022/08/01 06:29:32;;;;;;;9.65;4.75;;;;;;;20.21;70.69;95690.31;5123123;27;20079;-75
2022/08/01 06:31:58;;;;;;;7.95;4.75;;;;;;;20.15;70.32;95680.91;5125963;27;20042;-77
2022/08/01 06:34:23;;;;;;;7.05;4.78;;;;;;;20.32;70.29;95684.56;5128808;27;20046;-78
2022/08/01 06:36:49;;;;;;;7.65;4.68;;;;;;;20.29;70.06;95679.88;5112879;27;20096;-76
2022/08/01 06:39:14;;;;;;;7.63;5.00;;;;;;;20.32;69.89;95679.22;5117294;27;20039;-75
2022/08/01 06:41:41;;;;;;;7.53;4.80;;;;;;;20.45;69.32;95688.84;5124566;27;20046;-76
2022/08/01 06:44:07;;;;;;;10.20;4.70;;;;;;;20.39;69.49;95684.81;5120639;27;20054;-77
2022/08/01 06:46:33;;;;;;;8.02;4.97;;;;;;;20.46;69.58;95682.38;5120323;27;20400;-75
2022/08/01 06:48:59;;;;;;;10.27;5.15;;;;;;;20.58;67.83;95677.06;5107524;28;20112;-75
2022/08/01 06:51:25;;;;;;;8.23;4.70;;;;;;;20.56;68.71;95684.66;5125982;28;20452;-76
2022/08/01 06:53:50;;;;;;;9.13;5.05;;;;;;;20.60;69.07;95682.88;5105647;28;20058;-77
2022/08/01 06:56:15;;;;;;;6.78;4.53;;;;;;;20.75;69.05;95680.72;5127817;28;20121;-76
2022/08/01 06:58:41;;;;;;;9.13;4.63;;;;;;;20.69;69.55;95672.13;5117815;28;20036;-76
2022/08/01 07:01:07;;;;;;;7.82;4.40;;;;;;;20.77;68.07;95678.50;5119261;28;20096;-76
2022/08/01 07:03:34;;;;;;;8.80;5.05;;;;;;;20.75;68.50;95680.72;5123077;28;20092;-75
2022/08/01 07:05:59;;;;;;;9.68;5.40;;;;;;;20.77;69.76;95678.50;5095928;28;20516;-76
2022/08/01 07:08:25;;;;;;;8.23;5.43;;;;;;;20.82;68.49;95683.63;5128603;28;20035;-76
2022/08/01 07:10:50;;;;;;;8.30;4.75;;;;;;;21.02;67.34;95675.84;5121100;28;20047;-77
2022/08/01 07:13:20;;;;;;;7.88;4.80;;;;;;;20.98;66.80;95683.00;5119450;28;20092;-77
2022/08/01 07:15:46;;;;;;;10.80;4.55;;;;;;;20.93;67.58;95674.09;5116459;28;20108;-77
2022/08/01 07:18:12;;;;;;;7.20;4.85;;;;;;;20.96;67.39;95674.53;5128494;28;20603;-78
2022/08/01 07:20:38;;;;;;;8.57;5.38;;;;;;;20.92;67.74;95669.84;5121325;28;20047;-79
2022/08/01 07:23:03;;;;;;;14.15;5.70;;;;;;;21.06;67.12;95674.88;5126181;28;20059;-80
2022/08/01 07:25:29;;;;;;;7.45;4.85;;;;;;;21.13;67.50;95668.97;5125634;28;20023;-84
2022/08/01 07:27:55;;;;;;;10.02;5.53;;;;;;;21.24;66.39;95678.13;5131657;28;20044;-78
2022/08/01 07:30:20;;;;;;;11.43;4.90;;;;;;;21.24;68.43;95670.09;5121812;28;20057;-78
2022/08/01 07:32:45;;;;;;;7.32;5.00;;;;;;;21.24;66.78;95670.09;5119985;28;20043;-79
2022/08/01 07:35:11;;;;;;;11.57;5.00;;;;;;;21.23;66.07;95678.44;5124562;28;20036;-76
2022/08/01 07:37:36;;;;;;;8.80;5.60;;;;;;;21.30;67.25;95670.66;5109259;28;20053;-76
2022/08/01 07:40:04;;;;;;;8.35;5.25;;;;;;;21.41;65.70;95657.63;5108642;27;20046;-77
2022/08/01 07:42:31;;;;;;;15.75;5.53;;;;;;;21.27;67.53;95657.94;5127964;27;20136;-76
2022/08/01 07:44:56;;;;;;;9.93;5.22;;;;;;;21.34;68.33;95652.03;5130249;27;20522;-78
2022/08/01 07:47:25;;;;;;;10.20;5.43;;;;;;;21.47;67.54;95661.63;5131382;27;20015;-78
2022/08/01 07:49:51;;;;;;;7.97;5.30;;;;;;;21.57;66.53;95661.19;5132484;27;20047;-77
2022/08/01 07:52:17;;;;;;;8.27;5.10;;;;;;;21.56;66.73;95664.97;5131662;27;20500;-77
2022/08/01 07:54:42;;;;;;;10.60;5.15;;;;;;;21.61;66.36;95659.41;5130212;27;20031;-77
2022/08/01 07:57:08;;;;;;;10.15;5.20;;;;;;;21.59;67.16;95660.84;5130175;27;20039;-77
2022/08/01 07:59:34;;;;;;;8.27;5.40;;;;;;;21.67;66.60;95669.91;5127688;27;20043;-78
2022/08/01 08:01:59;;;;;;;7.38;5.05;;;;;;;21.84;65.11;95664.28;5131644;27;20095;-78
2022/08/01 08:04:26;;;;;;;17.10;6.07;;;;;;;21.76;66.05;95665.19;5134385;27;20043;-77
2022/08/01 08:06:53;;;;;;;8.65;4.82;;;;;;;21.82;65.45;95671.88;5130610;27;20632;-77
2022/08/01 08:09:18;;;;;;;9.07;4.70;;;;;;;22.13;65.13;95665.09;5128613;27;20047;-77
2022/08/01 08:11:45;;;;;;;7.97;5.03;;;;;;;22.26;64.78;95663.16;5111368;28;20066;-78
2022/08/01 08:14:11;;;;;;;9.32;5.50;;;;;;;22.43;63.57;95672.84;5116504;28;20521;-77
2022/08/01 08:16:36;;;;;;;15.75;5.10;;;;;;;22.38;64.19;95662.34;5131138;27;20131;-77
2022/08/01 08:19:03;;;;;;;9.40;5.15;;;;;;;22.26;65.00;95663.94;5123017;27;20118;-77
2022/08/01 08:21:29;;;;;;;10.52;5.32;;;;;;;22.19;66.46;95658.38;5122855;27;20040;-77
2022/08/01 08:26:39;;;;;;;9.07;5.03;;;;;;;22.33;65.09;95670.66;5122814;27;20039;-77
2022/08/01 08:29:04;;;;;;;9.98;5.18;;;;;;;22.44;64.63;95652.94;5126724;27;20516;-77
2022/08/01 08:31:30;;;;;;;8.25;5.10;;;;;;;22.56;64.51;95652.88;5131351;27;20050;-76
2022/08/01 08:33:55;;;;;;;8.65;5.38;;;;;;;22.49;63.64;95661.53;5124481;27;20043;-76
2022/08/01 08:36:21;;;;;;;7.45;5.10;;;;;;;22.49;63.53;95660.75;5127644;27;20038;-75
2022/08/01 08:38:46;;;;;;;7.35;4.63;;;;;;;22.73;62.55;95665.22;5116962;27;20047;-77
2022/08/01 08:41:12;;;;;;;9.80;5.00;;;;;;;22.74;61.16;95661.41;5122507;27;20512;-82
2022/08/01 08:43:38;;;;;;;9.00;5.13;;;;;;;22.59;60.94;95654.88;5124381;27;20032;-81
2022/08/01 08:46:07;;;;;;;10.45;4.65;;;;;;;22.57;60.34;95657.13;5123375;27;20511;-77
2022/08/01 08:48:34;;;;;;;8.15;5.22;;;;;;;22.69;60.62;95658.19;5131076;27;20496;-79
2022/08/01 08:51:01;;;;;;;8.80;4.63;;;;;;;22.86;59.48;95649.03;5120761;27;20599;-79
2022/08/01 08:53:27;;;;;;;8.73;4.70;;;;;;;22.80;59.83;95648.50;5101519;27;20071;-78
2022/08/01 08:55:55;;;;;;;9.00;5.05;;;;;;;22.67;60.52;95656.63;5131573;27;20385;-77
2022/08/01 08:58:21;;;;;;;7.78;4.72;;;;;;;22.75;61.02;95651.47;5130345;27;20066;-77
2022/08/01 09:00:47;;;;;;;10.75;4.95;;;;;;;22.89;61.31;95657.19;5121618;27;20061;-77
2022/08/01 09:03:13;;;;;;;10.20;5.13;;;;;;;22.84;61.20;95654.75;5123713;27;20047;-77
2022/08/01 09:05:39;;;;;;;6.85;4.80;;;;;;;22.88;60.48;95642.19;5131976;27;20031;-77
2022/08/01 09:08:08;;;;;;;7.43;4.50;;;;;;;23.01;61.85;95649.06;5122352;27;20040;-77
2022/08/01 09:10:33;;;;;;;7.53;4.80;;;;;;;23.04;61.22;95646.78;5116990;27;20032;-77
2022/08/01 09:13:10;;;;;;;7.35;4.35;;;;;;;23.10;60.46;95645.41;5118323;27;20035;-77
2022/08/01 09:15:47;;;;;;;8.02;4.70;;;;;;;23.13;60.52;95647.41;5125894;27;20084;-77
2022/08/01 09:18:33;;;;;;;8.30;4.82;;;;;;;23.23;61.33;95654.97;5104559;27;20043;-77
2022/08/01 09:21:10;;;;;;;8.20;4.70;;;;;;;23.27;58.55;95650.44;5118184;27;20171;-77
2022/08/01 09:23:39;;;;;;;8.93;4.68;;;;;;;23.29;59.55;95648.19;5130675;27;20054;-76
2022/08/01 09:26:06;;;;;;;8.98;5.15;;;;;;;23.45;61.24;95650.88;5134013;27;20039;-77
2022/08/01 09:28:32;;;;;;;7.82;4.70;;;;;;;23.80;59.63;95649.31;5128265;27;20046;-77
2022/08/01 09:30:58;;;;;;;8.70;4.80;;;;;;;23.86;59.09;95650.59;5112248;27;20045;-77
2022/08/01 09:33:24;;;;;;;10.05;4.28;;;;;;;23.81;56.81;95650.88;5107278;27;20046;-77
2022/08/01 09:35:57;;;;;;;7.78;4.18;;;;;;;23.90;59.42;95648.78;5113731;27;20167;-78
2022/08/01 09:38:26;;;;;;;10.35;4.20;;;;;;;23.97;56.51;95654.31;5107430;27;20039;-78
2022/08/01 09:40:57;;;;;;;8.15;4.32;;;;;;;23.99;56.74;95652.06;5111775;27;20047;-78
2022/08/01 09:43:24;;;;;;;7.55;4.35;;;;;;;23.83;56.91;95638.66;5126301;27;20067;-78
2022/08/01 09:45:50;;;;;;;7.63;3.83;;;;;;;23.93;55.73;95637.34;5099187;27;20781;-78
2022/08/01 09:48:17;;;;;;;7.57;4.13;;;;;;;23.94;57.79;95638.91;5118609;27;20050;-78
2022/08/01 09:50:47;;;;;;;7.53;4.10;;;;;;;24.07;57.43;95638.78;5121300;27;20466;-76
2022/08/01 09:53:14;;;;;;;6.18;3.75;;;;;;;24.14;55.14;95641.59;5103906;27;20436;-76
2022/08/01 09:55:40;;;;;;;7.32;3.78;;;;;;;24.35;54.45;95631.25;5101718;28;20485;-76
2022/08/01 09:58:07;;;;;;;5.90;3.63;;;;;;;24.39;56.08;95632.09;5127028;27;20043;-76
2022/08/01 10:00:34;;;;;;;7.97;4.22;;;;;;;24.47;54.45;95632.25;5122887;27;20039;-76
2022/08/01 10:03:18;;;;;;;6.32;3.72;;;;;;;24.45;54.33;95634.50;5120803;27;20104;-76
2022/08/01 10:05:44;;;;;;;5.55;4.00;;;;;;;24.82;52.63;95625.97;5127784;27;20047;-76
2022/08/01 10:08:10;;;;;;;9.57;3.80;;;;;;;25.14;53.62;95631.88;5124400;27;20084;-76
2022/08/01 10:10:36;;;;;;;9.27;3.80;;;;;;;25.05;53.24;95628.63;5119596;27;20047;-76
2022/08/01 10:13:02;;;;;;;6.97;3.92;;;;;;;25.26;53.96;95622.81;5114929;27;20050;-76
2022/08/01 10:15:28;;;;;;;6.63;3.80;;;;;;;25.08;52.77;95622.53;5120245;27;20063;-76
2022/08/01 10:17:56;;;;;;;10.93;3.70;;;;;;;25.39;52.79;95621.50;5125152;27;20078;-76
2022/08/01 10:20:25;;;;;;;5.95;3.63;;;;;;;25.71;50.29;95615.78;5126779;27;20031;-76
2022/08/01 10:22:53;;;;;;;6.25;3.75;;;;;;;25.85;49.70;95623.28;5120847;27;20529;-77
2022/08/01 10:25:20;;;;;;;8.10;3.97;;;;;;;25.93;50.10;95629.53;5106580;27;20042;-77
2022/08/01 10:27:48;;;;;;;6.47;3.90;;;;;;;26.20;51.83;95613.31;5129621;27;20035;-76
2022/08/01 10:30:14;;;;;;;6.55;3.38;;;;;;;26.36;49.32;95622.00;5110346;27;20043;-77
2022/08/01 10:32:42;;;;;;;7.72;3.75;;;;;;;26.21;50.04;95610.25;5128335;27;20138;-76
2022/08/01 10:35:14;;;;;;;5.43;3.50;;;;;;;26.69;48.48;95606.91;5107436;27;20385;-76
2022/08/01 10:37:40;;;;;;;5.32;3.60;;;;;;;26.85;48.33;95614.78;5107386;27;20124;-77
2022/08/01 10:40:07;;;;;;;6.70;3.55;;;;;;;26.92;49.02;95605.94;5116822;27;20497;-77
2022/08/01 10:42:33;;;;;;;7.57;4.00;;;;;;;27.17;47.14;95602.66;5126760;27;20058;-77
2022/08/01 10:44:59;;;;;;;8.10;3.85;;;;;;;27.85;45.69;95607.75;5125097;27;20035;-77
2022/08/01 10:47:32;;;;;;;6.68;3.38;;;;;;;27.85;44.47;95596.94;5122179;27;20558;-76
2022/08/01 10:50:11;;;;;;;5.47;3.60;;;;;;;28.07;44.32;95593.16;5127721;27;20490;-77
2022/08/01 10:52:37;;;;;;;9.15;3.80;;;;;;;28.37;44.54;95594.81;5127825;27;20046;-77
2022/08/01 10:55:11;;;;;;;6.22;3.15;;;;;;;28.25;42.23;95595.19;5108100;28;20409;-76
2022/08/01 10:57:47;;;;;;;6.38;3.17;;;;;;;28.15;42.39;95600.16;5125429;28;20043;-78
2022/08/01 11:00:21;;;;;;;4.68;2.83;;;;;;;28.37;42.09;95591.34;5106355;28;20148;-77
2022/08/01 11:03:00;;;;;;;6.30;3.08;;;;;;;28.86;41.62;95590.66;5093134;28;20043;-76
2022/08/01 11:05:30;;;;;;;6.30;3.53;;;;;;;28.92;41.92;95590.25;5108754;28;20516;-77
2022/08/01 11:07:58;;;;;;;4.97;3.50;;;;;;;29.25;41.98;95585.63;5121352;28;20627;-77
2022/08/01 11:10:34;;;;;;;5.88;3.10;;;;;;;29.80;41.61;95582.41;5122708;28;20062;-76
2022/08/01 11:13:03;;;;;;;7.85;3.22;;;;;;;30.03;40.28;95568.38;5112769;28;20050;-77
2022/08/01 11:15:28;;;;;;;6.45;3.40;;;;;;;30.11;38.92;95568.34;5122504;27;20088;-78
2022/08/01 11:17:55;;;;;;;5.72;3.25;;;;;;;29.64;40.00;95590.19;5097562;28;20039;-77
2022/08/01 11:20:29;;;;;;;3.60;2.83;;;;;;;30.00;38.24;95573.84;5102623;28;20059;-77
2022/08/01 11:23:01;;;;;;;5.13;2.90;;;;;;;30.02;39.26;95588.53;5104398;27;20060;-77
2022/08/01 11:25:48;;;;;;;4.93;2.83;;;;;;;30.41;39.20;95571.28;5104978;28;20063;-78
2022/08/01 11:28:13;;;;;;;4.95;3.00;;;;;;;30.48;37.62;95570.47;5116809;27;20044;-77
2022/08/01 11:31:09;;;;;;;4.97;3.17;;;;;;;30.24;37.04;95567.50;5124197;27;20148;-77
2022/08/01 11:33:41;;;;;;;4.30;3.05;;;;;;;29.82;39.03;95568.44;5117318;27;20058;-78
2022/08/01 11:36:15;;;;;;;5.65;3.30;;;;;;;29.12;40.97;95567.03;5106394;28;20063;-78